Time;durP1;ratioP1;P1;durP2;ratioP2;P2;SDS_P1;SDS_P2;PMS_P1;PMS_P2;Temp;Humidity;BMP_temperature;BMP_pressure;BME280_temperature;BME280_humidity;BME280_pressure;Samples;Min_cycle;Max_cycle;Signal;HPM_P1;HPM_P2
2023/03/21 00:00:40;;;;;;;7.95;5.82;;;;;16.10;101437.00;;;;5086177;28;20190;-78
2023/03/21 00:03:07;;;;;;;7.20;5.85;;;;;16.10;101438.00;;;;5088328;28;20202;-77
2023/03/21 00:05:39;;;;;;;6.95;6.25;;;;;16.10;101433.00;;;;5085299;28;20204;-78
2023/03/21 00:08:06;;;;;;;6.03;5.43;;;;;16.10;101431.00;;;;5086571;28;20226;-77
2023/03/21 00:10:35;;;;;;;6.72;6.03;;;;;16.00;101428.00;;;;5080402;28;20202;-77
2023/03/21 00:13:04;;;;;;;7.05;5.97;;;;;16.00;101432.00;;;;5087541;28;20202;-77
2023/03/21 00:15:31;;;;;;;8.38;7.03;;;;;16.00;101429.00;;;;5085072;28;20195;-77
2023/03/21 00:18:02;;;;;;;6.93;6.07;;;;;16.00;101421.00;;;;5087890;28;20648;-77
2023/03/21 00:20:33;;;;;;;6.53;5.82;;;;;16.00;101411.00;;;;5091258;28;20668;-77
2023/03/21 00:23:02;;;;;;;6.25;5.47;;;;;16.00;101418.00;;;;5090976;28;20201;-77
2023/03/21 00:25:30;;;;;;;6.10;5.50;;;;;16.00;101420.00;;;;5071509;28;20786;-77
2023/03/21 00:27:59;;;;;;;6.78;5.75;;;;;16.00;101412.00;;;;5072472;28;20231;-77
2023/03/21 00:30:26;;;;;;;6.65;5.93;;;;;16.00;101410.00;;;;5072228;28;20195;-77
2023/03/21 00:32:54;;;;;;;6.22;5.63;;;;;16.00;101415.00;;;;5085948;28;20221;-77
2023/03/21 00:35:21;;;;;;;6.65;5.95;;;;;16.00;101415.00;;;;5090316;28;20664;-78
2023/03/21 00:37:48;;;;;;;8.48;6.35;;;;;16.00;101407.00;;;;5091294;28;20217;-78
2023/03/21 00:40:16;;;;;;;6.47;5.88;;;;;16.00;101409.00;;;;5092323;28;20205;-78
2023/03/21 00:42:43;;;;;;;5.82;5.22;;;;;16.00;101412.00;;;;5090911;28;20230;-77
2023/03/21 00:45:12;;;;;;;6.90;6.05;;;;;16.00;101402.00;;;;5088218;28;20198;-77
2023/03/21 00:47:39;;;;;;;7.10;5.93;;;;;16.00;101403.00;;;;5089432;28;20235;-78
2023/03/21 00:50:08;;;;;;;6.47;5.80;;;;;16.00;101400.00;;;;5090927;28;20187;-77
2023/03/21 00:52:36;;;;;;;5.65;5.15;;;;;16.00;101399.00;;;;5091472;28;20209;-78
2023/03/21 00:55:06;;;;;;;7.13;6.05;;;;;16.00;101398.00;;;;5090184;28;20728;-78
2023/03/21 00:57:33;;;;;;;6.63;5.93;;;;;16.00;101393.00;;;;5090720;28;20206;-78
2023/03/21 01:00:00;;;;;;;8.45;7.25;;;;;16.00;101385.00;;;;5091356;28;20193;-77
2023/03/21 01:02:31;;;;;;;7.70;6.90;;;;;16.00;101383.00;;;;5076375;28;20203;-79
2023/03/21 01:04:58;;;;;;;7.57;6.82;;;;;16.00;101379.00;;;;5087492;28;20217;-77
2023/03/21 01:07:25;;;;;;;8.52;7.13;;;;;16.00;101369.00;;;;5091093;28;20660;-77
2023/03/21 01:09:53;;;;;;;9.93;8.23;;;;;16.00;101377.00;;;;5091595;28;20205;-77
2023/03/21 01:12:20;;;;;;;8.70;7.80;;;;;16.00;101369.00;;;;5089918;28;20199;-78
2023/03/21 01:14:48;;;;;;;11.35;8.63;;;;;16.00;101367.00;;;;5088199;28;20226;-77
2023/03/21 01:17:15;;;;;;;11.52;8.95;;;;;16.00;101367.00;;;;5084409;28;20672;-77
2023/03/21 01:19:44;;;;;;;11.48;9.05;;;;;16.00;101368.00;;;;5079498;28;20194;-78
2023/03/21 01:22:12;;;;;;;11.57;9.43;;;;;16.00;101367.00;;;;5087137;28;20251;-77
2023/03/21 01:24:39;;;;;;;11.23;8.82;;;;;16.00;101365.00;;;;5087926;28;20190;-77
2023/03/21 01:27:06;;;;;;;12.93;9.88;;;;;16.00;101360.00;;;;5091019;28;20199;-77
2023/03/21 01:29:34;;;;;;;13.70;9.63;;;;;16.00;101363.00;;;;5090592;28;20225;-77
2023/03/21 01:32:01;;;;;;;11.95;8.90;;;;;16.00;101356.00;;;;5089423;28;20214;-78
2023/03/21 01:34:28;;;;;;;13.13;10.07;;;;;16.00;101360.00;;;;5090776;28;20198;-77
2023/03/21 01:36:57;;;;;;;12.00;8.90;;;;;16.00;101350.00;;;;5088628;28;20247;-78
2023/03/21 01:39:24;;;;;;;11.63;9.40;;;;;16.00;101349.00;;;;5090751;28;20576;-77
2023/03/21 01:41:52;;;;;;;12.75;9.98;;;;;16.00;101347.00;;;;5089526;28;20198;-77
2023/03/21 01:44:19;;;;;;;13.57;10.18;;;;;16.00;101341.00;;;;5090984;28;20210;-77
2023/03/21 01:46:48;;;;;;;11.45;9.43;;;;;16.00;101345.00;;;;5090040;28;20197;-77
2023/03/21 01:49:24;;;;;;;11.90;9.45;;;;;16.00;101345.00;;;;5085315;28;20257;-77
2023/03/21 01:51:57;;;;;;;12.57;9.48;;;;;15.90;101339.00;;;;5087775;28;20197;-77
2023/03/21 01:54:30;;;;;;;15.13;10.10;;;;;15.90;101329.00;;;;5086686;28;20205;-77
2023/03/21 01:57:01;;;;;;;13.82;9.60;;;;;16.00;101335.00;;;;5088388;28;20751;-78
2023/03/21 01:59:34;;;;;;;11.93;9.98;;;;;15.90;101336.00;;;;5090078;28;20198;-77
2023/03/21 02:02:06;;;;;;;10.48;8.98;;;;;15.90;101330.00;;;;5089778;28;20199;-77
2023/03/21 02:04:35;;;;;;;14.02;9.77;;;;;15.90;101322.00;;;;5090156;28;20205;-77
2023/03/21 02:07:07;;;;;;;13.57;9.60;;;;;15.90;101317.00;;;;5089183;28;20194;-78
2023/03/21 02:09:39;;;;;;;13.40;10.00;;;;;15.90;101317.00;;;;5088593;28;20217;-77
2023/03/21 02:12:07;;;;;;;13.20;9.85;;;;;15.90;101324.00;;;;5089462;28;20198;-77
2023/03/21 02:14:37;;;;;;;11.18;9.05;;;;;15.90;101314.00;;;;5089200;28;20209;-77
2023/03/21 02:17:15;;;;;;;9.50;8.18;;;;;15.80;101306.00;;;;5086734;28;20205;-78
2023/03/21 02:20:27;;;;;;;11.73;8.40;;;;;15.80;101307.00;;;;5088159;28;20198;-77
2023/03/21 02:23:15;;;;;;;10.65;9.10;;;;;15.80;101309.00;;;;5079276;28;20205;-78
2023/03/21 02:26:20;;;;;;;9.57;7.32;;;;;15.70;101306.00;;;;5088454;28;20195;-78
2023/03/21 02:28:54;;;;;;;9.85;7.75;;;;;15.80;101305.00;;;;5087814;28;20324;-77
2023/03/21 02:31:36;;;;;;;11.00;8.18;;;;;15.80;101300.00;;;;5088558;28;20954;-77
2023/03/21 02:34:43;;;;;;;12.57;8.77;;;;;15.70;101297.00;;;;5088703;28;20263;-77
2023/03/21 02:37:20;;;;;;;10.93;8.63;;;;;15.80;101298.00;;;;5029511;28;20196;-78
2023/03/21 02:39:56;;;;;;;11.88;7.75;;;;;15.80;101293.00;;;;5075704;28;20214;-77
2023/03/21 02:42:29;;;;;;;13.13;8.55;;;;;15.80;101292.00;;;;5083690;28;20223;-78
2023/03/21 02:45:02;;;;;;;10.65;8.48;;;;;15.80;101290.00;;;;5073317;28;20194;-78
2023/03/21 02:47:34;;;;;;;11.40;8.43;;;;;15.90;101285.00;;;;5089900;28;20730;-79
2023/03/21 02:50:09;;;;;;;10.07;8.82;;;;;15.90;101288.00;;;;5088908;28;20295;-76
2023/03/21 02:52:40;;;;;;;9.88;8.82;;;;;15.90;101282.00;;;;5089171;28;20660;-76
2023/03/21 02:55:13;;;;;;;8.93;8.02;;;;;15.90;101284.00;;;;5089303;28;20202;-76
2023/03/21 02:57:43;;;;;;;9.85;7.53;;;;;15.90;101284.00;;;;5088130;28;20186;-76
2023/03/21 03:00:15;;;;;;;12.25;9.63;;;;;15.90;101283.00;;;;5084474;28;20214;-76
2023/03/21 03:02:43;;;;;;;10.90;8.35;;;;;15.90;101281.00;;;;5088057;28;20228;-76
2023/03/21 03:05:15;;;;;;;9.75;8.27;;;;;15.90;101277.00;;;;5089198;28;20767;-76
2023/03/21 03:07:56;;;;;;;10.75;8.30;;;;;15.80;101273.00;;;;5088216;28;20240;-76
2023/03/21 03:10:46;;;;;;;13.15;8.70;;;;;15.80;101282.00;;;;5074853;28;20199;-76
2023/03/21 03:13:31;;;;;;;14.02;7.47;;;;;15.80;101271.00;;;;5085686;28;20202;-76
2023/03/21 03:16:10;;;;;;;12.13;8.90;;;;;15.90;101275.00;;;;5085666;28;20648;-76
2023/03/21 03:18:48;;;;;;;12.80;8.73;;;;;15.90;101269.00;;;;5086236;28;20194;-76
2023/03/21 03:21:21;;;;;;;11.07;9.45;;;;;15.90;101270.00;;;;5088567;28;20194;-76
2023/03/21 03:23:53;;;;;;;12.23;9.13;;;;;15.90;101271.00;;;;5087803;28;20676;-76
2023/03/21 03:26:23;;;;;;;12.75;9.35;;;;;15.90;101269.00;;;;5088985;28;20202;-77
2023/03/21 03:28:54;;;;;;;12.77;9.85;;;;;15.90;101273.00;;;;5088032;28;20249;-77
2023/03/21 03:31:26;;;;;;;11.63;9.90;;;;;15.90;101267.00;;;;5084172;28;20271;-77
2023/03/21 03:33:56;;;;;;;12.02;9.13;;;;;15.90;101266.00;;;;5085609;28;20202;-77
2023/03/21 03:36:27;;;;;;;12.05;9.45;;;;;15.90;101264.00;;;;5088111;28;20226;-77
2023/03/21 03:38:57;;;;;;;12.13;9.55;;;;;15.90;101260.00;;;;5085663;28;20205;-77
2023/03/21 03:41:27;;;;;;;12.88;9.18;;;;;15.90;101266.00;;;;5088804;28;20186;-77
2023/03/21 03:43:58;;;;;;;11.60;9.55;;;;;15.90;101266.00;;;;5088391;28;20191;-77
2023/03/21 03:46:32;;;;;;;12.38;9.85;;;;;15.90;101262.00;;;;5088854;28;20198;-77
2023/03/21 03:49:04;;;;;;;12.45;9.32;;;;;15.90;101262.00;;;;5088646;28;20222;-77
2023/03/21 03:51:37;;;;;;;12.43;9.20;;;;;15.90;101258.00;;;;5082161;28;20199;-77
2023/03/21 03:54:10;;;;;;;12.65;9.60;;;;;15.90;101252.00;;;;5080804;28;20720;-77
2023/03/21 03:56:37;;;;;;;14.23;8.68;;;;;15.90;101249.00;;;;5087460;28;20190;-77
2023/03/21 03:59:06;;;;;;;10.93;8.40;;;;;15.90;101249.00;;;;5088044;28;20297;-77
2023/03/21 04:01:34;;;;;;;13.55;9.05;;;;;15.90;101248.00;;;;5087817;28;20194;-78
2023/03/21 04:04:02;;;;;;;12.95;8.55;;;;;15.90;101252.00;;;;5087699;28;20664;-76
2023/03/21 04:06:29;;;;;;;9.77;8.60;;;;;15.90;101243.00;;;;5088244;28;20194;-76
2023/03/21 04:08:57;;;;;;;11.57;8.45;;;;;15.90;101248.00;;;;5080748;28;20762;-77
2023/03/21 04:11:26;;;;;;;11.82;8.65;;;;;15.90;101242.00;;;;5087705;28;20194;-77
2023/03/21 04:13:54;;;;;;;9.90;8.68;;;;;15.90;101243.00;;;;5087788;28;20217;-77
2023/03/21 04:16:22;;;;;;;11.82;8.15;;;;;15.90;101235.00;;;;5086045;28;20190;-77
2023/03/21 04:18:49;;;;;;;11.18;8.25;;;;;15.90;101236.00;;;;5082661;28;20599;-77
2023/03/21 04:21:16;;;;;;;11.45;8.60;;;;;15.90;101230.00;;;;5087450;28;20202;-77
2023/03/21 04:23:44;;;;;;;9.65;8.23;;;;;15.90;101236.00;;;;5083408;28;20194;-77
2023/03/21 04:26:11;;;;;;;11.05;8.80;;;;;15.90;101236.00;;;;5084823;28;20710;-77
2023/03/21 04:28:40;;;;;;;13.65;8.75;;;;;15.90;101238.00;;;;5084709;28;20237;-77
2023/03/21 04:31:09;;;;;;;12.77;8.88;;;;;15.90;101234.00;;;;5087335;28;20255;-77
2023/03/21 04:33:37;;;;;;;10.40;8.38;;;;;15.90;101230.00;;;;5087062;28;20275;-77
2023/03/21 04:36:06;;;;;;;11.93;8.52;;;;;15.90;101228.00;;;;5086511;28;20206;-77
2023/03/21 04:38:33;;;;;;;12.23;8.85;;;;;15.90;101222.00;;;;5086455;28;20195;-77
2023/03/21 04:41:01;;;;;;;11.30;8.95;;;;;15.90;101216.00;;;;5086982;28;20208;-77
2023/03/21 04:43:29;;;;;;;11.27;7.85;;;;;15.90;101220.00;;;;5082007;28;20706;-77
2023/03/21 04:45:58;;;;;;;8.95;7.25;;;;;15.90;101222.00;;;;5086834;28;20408;-77
2023/03/21 04:48:26;;;;;;;10.60;7.32;;;;;15.90;101213.00;;;;5088265;28;20679;-77
2023/03/21 04:50:54;;;;;;;9.77;6.45;;;;;15.90;101211.00;;;;5087922;28;20210;-77
2023/03/21 04:53:21;;;;;;;10.77;7.72;;;;;15.90;101219.00;;;;5087782;28;20198;-77
2023/03/21 04:55:48;;;;;;;11.10;6.72;;;;;15.90;101221.00;;;;5087793;28;20205;-77
2023/03/21 04:58:16;;;;;;;8.60;6.60;;;;;15.90;101213.00;;;;5085763;28;20198;-77
2023/03/21 05:00:43;;;;;;;8.95;6.55;;;;;15.90;101221.00;;;;5078144;28;20194;-77
2023/03/21 05:03:18;;;;;;;9.75;6.65;;;;;15.90;101223.00;;;;5087667;28;20230;-77
2023/03/21 05:05:46;;;;;;;9.63;6.65;;;;;15.90;101221.00;;;;5087415;28;20271;-77
2023/03/21 05:08:14;;;;;;;10.18;6.95;;;;;15.90;101225.00;;;;5090888;28;20198;-77
2023/03/21 05:10:41;;;;;;;8.75;5.57;;;;;15.90;101219.00;;;;5084826;28;20226;-76
2023/03/21 05:13:09;;;;;;;7.50;5.28;;;;;15.90;101218.00;;;;5091082;28;20206;-77
2023/03/21 05:15:36;;;;;;;7.45;4.88;;;;;15.90;101217.00;;;;5091336;28;20210;-77
2023/03/21 05:18:10;;;;;;;7.53;5.47;;;;;15.90;101217.00;;;;5088293;28;20206;-77
2023/03/21 05:20:41;;;;;;;8.05;4.90;;;;;15.90;101207.00;;;;5090080;28;20379;-76
2023/03/21 05:23:09;;;;;;;7.05;5.55;;;;;15.90;101209.00;;;;5091028;28;20210;-77
2023/03/21 05:25:37;;;;;;;9.18;5.85;;;;;15.90;101203.00;;;;5090493;28;20194;-76
2023/03/21 05:28:04;;;;;;;7.32;5.15;;;;;15.90;101202.00;;;;5091039;28;20202;-76
2023/03/21 05:30:33;;;;;;;10.88;5.18;;;;;15.90;101200.00;;;;5089148;28;20225;-76
2023/03/21 05:33:00;;;;;;;6.03;5.18;;;;;15.90;101198.00;;;;5085422;28;20619;-76
2023/03/21 05:35:28;;;;;;;10.15;5.70;;;;;16.00;101199.00;;;;5078866;28;20690;-77
2023/03/21 05:37:57;;;;;;;6.85;4.72;;;;;16.00;101195.00;;;;5088915;28;20600;-76
2023/03/21 05:40:24;;;;;;;7.50;4.47;;;;;16.00;101196.00;;;;5091173;28;20202;-76
2023/03/21 05:42:52;;;;;;;6.80;4.75;;;;;16.00;101197.00;;;;5090241;28;20206;-76
2023/03/21 05:45:19;;;;;;;7.20;5.13;;;;;16.00;101190.00;;;;5089677;28;20198;-77
2023/03/21 05:47:46;;;;;;;6.00;4.47;;;;;16.00;101188.00;;;;5089262;28;20198;-76
2023/03/21 05:50:14;;;;;;;9.93;5.22;;;;;16.00;101188.00;;;;5084238;28;20226;-76
2023/03/21 05:52:42;;;;;;;8.27;4.72;;;;;16.00;101188.00;;;;5089278;28;20205;-76
2023/03/21 05:55:10;;;;;;;9.10;4.72;;;;;16.00;101190.00;;;;5090090;28;20206;-76
2023/03/21 05:57:39;;;;;;;8.52;4.80;;;;;16.00;101188.00;;;;5090715;28;20205;-76
2023/03/21 06:00:09;;;;;;;8.18;5.00;;;;;16.00;101190.00;;;;5089175;28;20265;-77
2023/03/21 06:02:36;;;;;;;7.50;5.13;;;;;16.00;101190.00;;;;5089886;28;20212;-77
2023/03/21 06:05:05;;;;;;;7.93;5.18;;;;;16.00;101187.00;;;;5089902;28;20671;-79
2023/03/21 06:07:32;;;;;;;8.57;5.95;;;;;16.00;101187.00;;;;5081309;28;20206;-77
2023/03/21 06:09:59;;;;;;;9.05;4.63;;;;;16.00;101183.00;;;;5082836;28;20222;-77
2023/03/21 06:12:28;;;;;;;6.88;4.57;;;;;16.00;101185.00;;;;5082897;28;20197;-77
2023/03/21 06:14:55;;;;;;;7.43;4.97;;;;;16.00;101191.00;;;;5086348;28;20194;-77
2023/03/21 06:17:23;;;;;;;6.30;4.70;;;;;16.00;101193.00;;;;5087860;28;20571;-76
2023/03/21 06:19:50;;;;;;;7.38;5.45;;;;;16.00;101189.00;;;;5087451;28;20205;-77
2023/03/21 06:22:18;;;;;;;9.93;5.30;;;;;16.10;101193.00;;;;5085053;28;20190;-76
2023/03/21 06:24:45;;;;;;;5.88;4.68;;;;;16.10;101192.00;;;;5078086;28;20213;-76
2023/03/21 06:27:12;;;;;;;6.43;4.55;;;;;16.10;101188.00;;;;5089591;28;20198;-76
2023/03/21 06:29:41;;;;;;;9.23;5.40;;;;;16.10;101193.00;;;;5087727;28;20234;-77
2023/03/21 06:32:08;;;;;;;8.63;4.82;;;;;16.10;101193.00;;;;5088058;28;20222;-77
2023/03/21 06:34:35;;;;;;;10.68;5.40;;;;;16.10;101192.00;;;;5087484;28;20194;-77
2023/03/21 06:37:04;;;;;;;6.82;4.60;;;;;16.10;101196.00;;;;5082915;28;20202;-77
2023/03/21 06:39:32;;;;;;;6.88;4.53;;;;;16.10;101202.00;;;;5077554;28;20199;-76
2023/03/21 06:42:00;;;;;;;7.50;4.53;;;;;16.10;101198.00;;;;5087155;28;20200;-77
2023/03/21 06:44:27;;;;;;;7.72;5.57;;;;;16.10;101202.00;;;;5082677;28;20206;-76
2023/03/21 06:46:57;;;;;;;6.32;4.57;;;;;16.10;101200.00;;;;5083556;28;20415;-76
2023/03/21 06:49:25;;;;;;;7.90;4.90;;;;;16.20;101208.00;;;;5086512;28;20727;-76
2023/03/21 06:51:53;;;;;;;8.05;4.55;;;;;16.20;101206.00;;;;5083989;28;20199;-76
2023/03/21 06:54:20;;;;;;;6.78;4.63;;;;;16.20;101206.00;;;;5082875;28;20202;-77
2023/03/21 06:56:47;;;;;;;7.13;4.65;;;;;16.20;101196.00;;;;5085602;28;20205;-76
2023/03/21 06:59:15;;;;;;;7.97;4.72;;;;;16.20;101201.00;;;;5085229;28;20198;-78
2023/03/21 07:01:42;;;;;;;6.65;4.15;;;;;16.20;101188.00;;;;5085746;28;20198;-77
2023/03/21 07:04:11;;;;;;;8.27;5.75;;;;;16.20;101195.00;;;;5087221;28;20448;-78
2023/03/21 07:06:38;;;;;;;6.20;4.60;;;;;16.30;101196.00;;;;5088510;28;20206;-76
2023/03/21 07:09:06;;;;;;;8.50;4.75;;;;;16.30;101202.00;;;;5084680;28;20198;-77
2023/03/21 07:11:35;;;;;;;9.00;4.72;;;;;16.30;101197.00;;;;5086975;28;20289;-77
2023/03/21 07:14:02;;;;;;;8.55;4.90;;;;;16.30;101212.00;;;;5087668;28;20578;-77
2023/03/21 07:16:29;;;;;;;6.57;4.22;;;;;16.40;101206.00;;;;5073126;28;20233;-77
2023/03/21 07:18:56;;;;;;;5.63;4.68;;;;;16.40;101202.00;;;;5067143;28;20681;-77
2023/03/21 07:21:25;;;;;;;7.07;4.78;;;;;16.40;101206.00;;;;5068144;28;20225;-76
2023/03/21 07:23:52;;;;;;;7.15;5.15;;;;;16.40;101210.00;;;;5067659;28;20218;-77
2023/03/21 07:26:20;;;;;;;7.20;4.35;;;;;16.40;101209.00;;;;5080922;28;20202;-77
2023/03/21 07:28:47;;;;;;;10.50;4.57;;;;;16.40;101214.00;;;;5080605;28;20226;-76
2023/03/21 07:31:16;;;;;;;6.25;4.45;;;;;16.40;101215.00;;;;5087990;28;20703;-77
2023/03/21 07:33:44;;;;;;;7.00;4.10;;;;;16.40;101215.00;;;;5086121;28;20205;-77
2023/03/21 07:36:14;;;;;;;7.18;4.50;;;;;16.40;101212.00;;;;5087498;28;20221;-77
2023/03/21 07:38:43;;;;;;;6.60;4.28;;;;;16.40;101207.00;;;;5082770;28;20210;-77
2023/03/21 07:41:10;;;;;;;9.57;5.05;;;;;16.40;101208.00;;;;5072485;28;20269;-78
2023/03/21 07:43:37;;;;;;;6.07;4.25;;;;;16.50;101205.00;;;;5083462;28;20203;-77
2023/03/21 07:46:05;;;;;;;8.82;5.00;;;;;16.50;101199.00;;;;5067602;28;20194;-78
2023/03/21 07:48:33;;;;;;;6.32;4.20;;;;;16.50;101192.00;;;;5067819;28;20235;-77
2023/03/21 07:51:01;;;;;;;7.80;4.70;;;;;16.50;101186.00;;;;5086144;28;20226;-77
2023/03/21 07:53:28;;;;;;;6.40;4.30;;;;;16.60;101185.00;;;;5087389;28;20198;-78
2023/03/21 07:55:57;;;;;;;5.95;4.15;;;;;16.50;101180.00;;;;5087762;28;20217;-77
2023/03/21 07:58:24;;;;;;;8.43;4.82;;;;;16.60;101176.00;;;;5084838;28;20213;-78
2023/03/21 08:00:52;;;;;;;8.25;4.25;;;;;16.60;101178.00;;;;5084240;28;20205;-78
2023/03/21 08:03:20;;;;;;;9.10;4.03;;;;;16.60;101181.00;;;;5086940;28;20547;-78
2023/03/21 08:05:47;;;;;;;11.18;4.40;;;;;16.60;101182.00;;;;5086697;28;20239;-78
2023/03/21 08:08:15;;;;;;;6.15;3.95;;;;;16.60;101186.00;;;;5079533;28;20681;-78
2023/03/21 08:10:43;;;;;;;6.50;4.10;;;;;16.60;101176.00;;;;5088227;28;20218;-78
2023/03/21 08:13:13;;;;;;;9.85;4.03;;;;;16.60;101182.00;;;;5087565;28;20212;-77
2023/03/21 08:15:41;;;;;;;6.88;3.78;;;;;16.60;101172.00;;;;5086346;28;20198;-79
2023/03/21 08:18:09;;;;;;;7.00;4.18;;;;;16.60;101179.00;;;;5088198;28;20233;-78
2023/03/21 08:20:36;;;;;;;7.15;4.25;;;;;16.60;101167.00;;;;5088167;28;20198;-78
2023/03/21 08:23:03;;;;;;;5.50;3.50;;;;;16.60;101167.00;;;;5085309;28;20217;-76
2023/03/21 08:25:31;;;;;;;6.47;3.85;;;;;16.60;101165.00;;;;5068130;28;20677;-76
2023/03/21 08:27:59;;;;;;;7.13;3.83;;;;;16.60;101162.00;;;;5071667;28;20191;-76
2023/03/21 08:30:29;;;;;;;7.82;3.78;;;;;16.60;101157.00;;;;5088275;28;20696;-77
2023/03/21 08:32:58;;;;;;;5.43;3.83;;;;;16.70;101170.00;;;;5087694;28;20217;-76
2023/03/21 08:35:25;;;;;;;6.40;3.45;;;;;16.70;101171.00;;;;5088407;28;20186;-76
2023/03/21 08:37:53;;;;;;;6.07;3.17;;;;;16.70;101164.00;;;;5086527;28;20213;-76
2023/03/21 08:40:20;;;;;;;5.72;2.92;;;;;16.70;101161.00;;;;5083560;28;20582;-76
2023/03/21 08:42:48;;;;;;;6.35;3.58;;;;;16.80;101158.00;;;;5085449;28;20194;-76
2023/03/21 08:45:17;;;;;;;8.35;3.90;;;;;16.80;101155.00;;;;5090567;28;20206;-76
2023/03/21 08:47:46;;;;;;;5.57;3.60;;;;;16.80;101154.00;;;;5087842;28;20186;-76
2023/03/21 08:50:17;;;;;;;5.35;3.50;;;;;16.90;101154.00;;;;5091636;28;20226;-77
2023/03/21 08:52:44;;;;;;;7.30;3.50;;;;;16.90;101145.00;;;;5088991;28;20681;-76
2023/03/21 08:55:13;;;;;;;8.27;3.90;;;;;17.00;101145.00;;;;5080668;28;20194;-76
2023/03/21 08:57:40;;;;;;;5.82;3.63;;;;;17.00;101139.00;;;;5086517;28;20197;-76
2023/03/21 09:00:11;;;;;;;5.03;4.03;;;;;17.00;101142.00;;;;5082660;28;20291;-76
2023/03/21 09:02:39;;;;;;;5.82;3.63;;;;;17.10;101137.00;;;;5074739;28;20194;-76
2023/03/21 09:05:10;;;;;;;4.00;3.13;;;;;17.10;101133.00;;;;5086027;28;20194;-76
2023/03/21 09:07:38;;;;;;;7.47;2.90;;;;;17.10;101134.00;;;;5087710;28;20186;-76
2023/03/21 09:10:09;;;;;;;4.65;3.22;;;;;17.10;101127.00;;;;5089400;28;20214;-76
2023/03/21 09:12:36;;;;;;;4.75;2.75;;;;;17.10;101121.00;;;;5091026;28;20256;-77
2023/03/21 09:15:04;;;;;;;6.78;3.25;;;;;17.10;101135.00;;;;5079479;28;20207;-76
2023/03/21 09:17:32;;;;;;;8.10;2.85;;;;;17.20;101124.00;;;;5070878;28;20199;-77
2023/03/21 09:19:59;;;;;;;6.20;2.90;;;;;17.20;101127.00;;;;5070456;28;20199;-76
2023/03/21 09:22:29;;;;;;;5.88;3.45;;;;;17.20;101130.00;;;;5070285;28;20207;-76
2023/03/21 09:24:58;;;;;;;4.65;3.50;;;;;17.20;101120.00;;;;5084232;28;20214;-76
2023/03/21 09:27:27;;;;;;;5.93;3.20;;;;;17.20;101117.00;;;;5087609;28;20198;-76
2023/03/21 09:29:54;;;;;;;3.80;3.13;;;;;17.30;101106.00;;;;5089072;28;20783;-76
2023/03/21 09:32:22;;;;;;;6.75;3.10;;;;;17.30;101103.00;;;;5085752;28;20305;-76
2023/03/21 09:34:49;;;;;;;5.03;3.42;;;;;17.30;101104.00;;;;5087545;28;20190;-76
2023/03/21 09:37:17;;;;;;;6.82;3.75;;;;;17.40;101094.00;;;;5091190;28;20201;-76
2023/03/21 09:39:45;;;;;;;6.47;4.10;;;;;17.40;101092.00;;;;5090583;28;20198;-76
2023/03/21 09:42:30;;;;;;;8.57;3.65;;;;;17.40;101096.00;;;;5083996;28;20230;-76
2023/03/21 09:45:08;;;;;;;5.25;3.40;;;;;17.50;101087.00;;;;5085051;28;20209;-76
2023/03/21 09:47:48;;;;;;;6.80;3.95;;;;;17.50;101091.00;;;;5089081;28;20201;-76
2023/03/21 09:50:18;;;;;;;5.47;3.50;;;;;17.60;101092.00;;;;5079226;28;20210;-76
2023/03/21 09:52:50;;;;;;;5.70;3.53;;;;;17.60;101088.00;;;;5089253;28;20232;-76
2023/03/21 09:55:23;;;;;;;8.52;4.45;;;;;17.60;101089.00;;;;5073033;28;20195;-76
2023/03/21 09:57:59;;;;;;;5.75;4.07;;;;;17.60;101092.00;;;;5072405;28;20295;-76
2023/03/21 10:00:34;;;;;;;7.28;3.72;;;;;17.60;101091.00;;;;5073058;28;20202;-76
2023/03/21 10:03:07;;;;;;;5.82;3.70;;;;;17.60;101093.00;;;;5070250;28;20191;-75
2023/03/21 10:05:43;;;;;;;5.40;3.55;;;;;17.70;101085.00;;;;5070667;28;20281;-76
2023/03/21 10:08:16;;;;;;;4.65;3.15;;;;;17.70;101087.00;;;;5075074;28;20190;-76
2023/03/21 10:10:49;;;;;;;7.80;3.63;;;;;17.70;101085.00;;;;5085206;28;20312;-75
2023/03/21 10:13:20;;;;;;;5.32;3.65;;;;;17.80;101089.00;;;;5087851;28;20295;-76
2023/03/21 10:15:47;;;;;;;6.80;3.40;;;;;17.90;101091.00;;;;5089553;28;20202;-76
2023/03/21 10:18:21;;;;;;;6.97;4.00;;;;;17.90;101093.00;;;;5089360;28;20194;-76
2023/03/21 10:20:49;;;;;;;6.78;4.03;;;;;18.00;101086.00;;;;5089480;28;20199;-75
2023/03/21 10:23:20;;;;;;;6.40;3.38;;;;;18.10;101084.00;;;;5075966;28;20933;-75
2023/03/21 10:25:54;;;;;;;6.78;3.75;;;;;18.10;101082.00;;;;5068587;28;20202;-75
2023/03/21 10:28:25;;;;;;;7.53;3.15;;;;;18.10;101087.00;;;;5086217;28;20221;-75
2023/03/21 10:30:54;;;;;;;4.50;3.13;;;;;18.20;101076.00;;;;5088820;28;20596;-75
2023/03/21 10:33:25;;;;;;;4.95;2.95;;;;;18.20;101076.00;;;;5086188;28;20217;-75
2023/03/21 10:35:58;;;;;;;5.50;3.40;;;;;18.20;101078.00;;;;5088558;28;20908;-75
2023/03/21 10:38:27;;;;;;;11.35;3.80;;;;;18.30;101067.00;;;;5088741;28;20197;-75
2023/03/21 10:40:55;;;;;;;6.85;3.72;;;;;18.30;101067.00;;;;5075560;28;20579;-76
2023/03/21 10:43:37;;;;;;;7.30;3.72;;;;;18.20;101063.00;;;;5082527;28;20275;-75
2023/03/21 10:46:11;;;;;;;8.00;4.40;;;;;18.30;101068.00;;;;5083152;28;20656;-75
2023/03/21 10:48:40;;;;;;;5.05;3.45;;;;;18.40;101065.00;;;;5088568;28;20206;-75
2023/03/21 10:51:09;;;;;;;6.20;3.22;;;;;18.40;101064.00;;;;5088796;28;20363;-75
2023/03/21 10:53:39;;;;;;;6.72;3.15;;;;;18.50;101068.00;;;;5084945;28;20252;-75
2023/03/21 10:56:11;;;;;;;7.22;3.38;;;;;18.50;101080.00;;;;5083846;28;20206;-75
2023/03/21 10:58:43;;;;;;;4.53;3.13;;;;;18.50;101085.00;;;;5085772;28;20198;-75
2023/03/21 11:01:14;;;;;;;5.55;3.33;;;;;18.50;101071.00;;;;5086878;28;20204;-75
2023/03/21 11:03:47;;;;;;;5.68;3.53;;;;;18.50;101059.00;;;;5088953;28;20198;-75
2023/03/21 11:06:23;;;;;;;6.35;3.72;;;;;18.60;101065.00;;;;5089088;28;20664;-75
2023/03/21 11:08:54;;;;;;;4.72;3.28;;;;;18.60;101064.00;;;;5085489;28;20213;-75
2023/03/21 11:11:27;;;;;;;5.68;3.05;;;;;18.70;101073.00;;;;5088768;28;20608;-75
2023/03/21 11:13:59;;;;;;;7.00;3.47;;;;;18.70;101079.00;;;;5083212;28;20255;-75
2023/03/21 11:16:35;;;;;;;5.80;2.85;;;;;18.80;101076.00;;;;5082223;28;20656;-75
2023/03/21 11:19:11;;;;;;;4.93;2.90;;;;;18.90;101073.00;;;;5083870;28;20209;-76
2023/03/21 11:21:39;;;;;;;4.63;2.80;;;;;18.90;101064.00;;;;5089503;28;20194;-76
2023/03/21 11:24:13;;;;;;;4.68;2.90;;;;;19.00;101061.00;;;;5084285;28;20209;-75
2023/03/21 11:26:44;;;;;;;6.80;3.80;;;;;19.00;101065.00;;;;5085715;28;20202;-76
2023/03/21 11:29:25;;;;;;;6.07;3.50;;;;;19.10;101049.00;;;;5087593;28;20226;-76
2023/03/21 11:31:57;;;;;;;4.65;2.88;;;;;19.20;101052.00;;;;5075010;28;20234;-76
2023/03/21 11:34:31;;;;;;;5.47;3.47;;;;;19.20;101051.00;;;;5083895;28;20198;-75
2023/03/21 11:37:01;;;;;;;5.40;2.97;;;;;19.40;101047.00;;;;5084078;28;20851;-75
2023/03/21 11:39:33;;;;;;;12.95;4.03;;;;;19.40;101046.00;;;;5086557;28;20272;-75
2023/03/21 11:42:01;;;;;;;5.40;3.38;;;;;19.50;101040.00;;;;5087731;28;20648;-76
2023/03/21 11:44:32;;;;;;;3.90;2.95;;;;;19.60;101033.00;;;;5085934;28;20202;-76
2023/03/21 11:47:00;;;;;;;4.20;3.08;;;;;19.70;101035.00;;;;5086348;28;20294;-76
2023/03/21 11:49:28;;;;;;;5.60;3.42;;;;;19.80;101040.00;;;;5089158;28;20229;-76
2023/03/21 11:52:11;;;;;;;4.68;2.95;;;;;19.80;101036.00;;;;5087767;28;20225;-76
2023/03/21 11:54:53;;;;;;;4.35;3.53;;;;;19.80;101035.00;;;;5084777;28;20198;-76
2023/03/21 11:57:30;;;;;;;8.25;3.22;;;;;19.80;101042.00;;;;5083416;28;20224;-76
2023/03/21 12:00:12;;;;;;;6.38;3.10;;;;;19.80;101041.00;;;;5085568;28;20285;-76
2023/03/21 12:03:04;;;;;;;6.35;3.28;;;;;19.70;101042.00;;;;5085737;28;20240;-75
2023/03/21 12:05:34;;;;;;;4.20;3.13;;;;;19.70;101034.00;;;;5084056;28;20206;-77
2023/03/21 12:08:09;;;;;;;4.85;3.38;;;;;19.60;101032.00;;;;5086671;28;20202;-76
2023/03/21 12:10:44;;;;;;;3.58;2.80;;;;;19.60;101037.00;;;;5076192;28;20197;-76
2023/03/21 12:13:29;;;;;;;4.72;2.60;;;;;19.50;101035.00;;;;5087162;28;20785;-76
2023/03/21 12:16:05;;;;;;;7.97;3.00;;;;;19.60;101026.00;;;;5089869;28;20190;-76
2023/03/21 12:18:48;;;;;;;3.67;2.50;;;;;19.50;101022.00;;;;5071378;28;20263;-76
2023/03/21 12:21:20;;;;;;;5.72;3.47;;;;;19.60;101021.00;;;;5085412;28;20194;-77